createdAt,value
2019-05-23T00:00:23.040Z,80.55
2019-05-23T00:01:23.038Z,81.05
2019-05-23T00:02:22.962Z,80.65
2019-05-23T00:03:22.939Z,80.85
2019-05-23T00:04:22.897Z,81.37
2019-05-23T00:05:22.869Z,81.16
2019-05-23T00:06:22.872Z,81.16
2019-05-23T00:07:22.812Z,80.85
2019-05-23T00:08:22.780Z,81.05
2019-05-23T00:09:22.754Z,81.37
2019-05-23T00:10:22.758Z,81.16
2019-05-23T00:11:22.738Z,80.75
2019-05-23T00:12:22.663Z,80.85
2019-05-23T00:13:22.641Z,81.26
2019-05-23T00:14:22.603Z,80.89
2019-05-23T00:15:22.573Z,81.10
2019-05-23T00:16:22.611Z,81.10
2019-05-23T00:17:22.513Z,81.60
2019-05-23T00:18:22.487Z,81.71
2019-05-23T00:19:22.472Z,81.60
2019-05-23T00:20:22.429Z,80.99
2019-05-23T00:21:22.403Z,81.71
2019-05-23T00:22:22.394Z,81.51
2019-05-23T00:23:22.344Z,81.71
2019-05-23T00:24:22.309Z,81.71
2019-05-23T00:25:22.304Z,81.30
2019-05-23T00:26:22.269Z,81.40
2019-05-23T00:27:22.256Z,81.81
2019-05-23T00:28:22.196Z,81.81
2019-05-23T00:29:22.174Z,81.81
2019-05-23T00:30:22.145Z,81.81
2019-05-23T00:31:22.124Z,81.71
2019-05-23T00:32:22.808Z,81.40
2019-05-23T00:33:22.055Z,82.01
2019-05-23T00:34:22.043Z,82.15
2019-05-23T00:35:21.987Z,82.05
2019-05-23T00:36:21.953Z,82.12
2019-05-23T00:37:21.950Z,82.46
2019-05-23T00:38:21.898Z,82.67
2019-05-23T00:39:21.867Z,82.77
2019-05-23T00:40:21.846Z,82.67
2019-05-23T00:41:21.815Z,82.15
2019-05-23T00:42:22.367Z,82.97
2019-05-23T00:43:21.748Z,82.87
2019-05-23T00:44:21.725Z,82.77
2019-05-23T00:45:21.691Z,83.07
2019-05-23T00:46:21.654Z,82.67
2019-05-23T00:47:21.653Z,82.67
2019-05-23T00:48:21.598Z,82.26
2019-05-23T00:49:21.568Z,83.01
2019-05-23T00:50:21.557Z,83.11
2019-05-23T00:51:21.506Z,82.77
2019-05-23T00:52:22.281Z,83.01
2019-05-23T00:53:21.446Z,83.22
2019-05-23T00:54:21.425Z,83.32
2019-05-23T00:55:21.403Z,83.22
2019-05-23T00:56:21.370Z,83.22
2019-05-23T00:57:21.351Z,83.83
2019-05-23T00:58:21.308Z,84.34
2019-05-23T00:59:26.937Z,84.38
2019-05-23T01:00:21.258Z,84.17
2019-05-23T01:01:21.208Z,84.69
2019-05-23T01:02:21.229Z,84.28
2019-05-23T01:03:21.150Z,84.58
2019-05-23T01:04:21.118Z,84.58
2019-05-23T01:05:21.093Z,84.69
2019-05-23T01:06:21.061Z,84.28
2019-05-23T01:07:21.061Z,84.72
2019-05-23T01:08:21.005Z,84.22
2019-05-23T01:09:20.976Z,84.93
2019-05-23T01:10:20.942Z,85.03
2019-05-23T01:11:20.912Z,85.03
2019-05-23T01:12:20.921Z,85.03
2019-05-23T01:13:20.859Z,85.14
2019-05-23T01:14:21.779Z,85.24
2019-05-23T01:15:20.791Z,85.48
2019-05-23T01:16:20.761Z,85.38
2019-05-23T01:17:20.772Z,85.48
2019-05-23T01:18:20.733Z,86.30
2019-05-23T01:19:20.675Z,86.20
2019-05-23T01:20:20.649Z,86.20
2019-05-23T01:21:20.612Z,86.20
2019-05-23T01:22:20.590Z,85.99
2019-05-23T01:23:20.580Z,86.30
2019-05-23T01:24:20.519Z,85.89
2019-05-23T01:25:20.486Z,85.69
2019-05-23T01:26:20.460Z,86.96
2019-05-23T01:27:20.429Z,86.30
2019-05-23T01:28:20.431Z,86.30
2019-05-23T01:29:20.375Z,86.10
2019-05-23T01:30:20.342Z,85.89
2019-05-23T01:31:20.388Z,85.72
2019-05-23T01:32:20.274Z,86.55
2019-05-23T01:33:20.271Z,87.12
2019-05-23T01:34:20.227Z,86.71
2019-05-23T01:35:20.186Z,86.81
2019-05-23T01:36:20.156Z,86.61
2019-05-23T01:37:20.124Z,86.14
2019-05-23T01:38:20.129Z,86.65
2019-05-23T01:39:20.783Z,86.75
2019-05-23T01:40:20.035Z,86.65
2019-05-23T01:41:20.009Z,86.65
2019-05-23T01:42:19.987Z,87.26
2019-05-23T01:43:19.970Z,87.20
2019-05-23T01:44:19.944Z,86.90
2019-05-23T01:45:19.892Z,86.90
2019-05-23T01:46:19.861Z,87.51
2019-05-23T01:47:19.826Z,87.71
2019-05-23T01:48:19.796Z,87.61
2019-05-23T01:49:19.794Z,87.51
2019-05-23T01:50:19.735Z,88.02
2019-05-23T01:51:19.741Z,87.96
2019-05-23T01:52:19.735Z,88.17
2019-05-23T01:53:19.651Z,88.78
2019-05-23T01:54:19.927Z,88.98
2019-05-23T01:55:19.585Z,88.98
2019-05-23T01:56:19.569Z,89.29
2019-05-23T01:57:19.546Z,89.23
2019-05-23T01:58:19.490Z,89.13
2019-05-23T01:59:19.526Z,89.33
2019-05-23T02:00:19.432Z,90.46
2019-05-23T02:01:19.404Z,90.16
2019-05-23T02:02:19.372Z,90.36
2019-05-23T02:03:19.341Z,90.09
2019-05-23T02:04:19.350Z,90.16
2019-05-23T02:05:19.280Z,90.77
2019-05-23T02:06:19.244Z,90.50
2019-05-23T02:07:19.229Z,90.61
2019-05-23T02:08:19.181Z,91.22
2019-05-23T02:09:19.406Z,91.02
2019-05-23T02:10:19.171Z,90.91
2019-05-23T02:11:19.103Z,91.74
2019-05-23T02:12:19.059Z,91.57
2019-05-23T02:13:19.052Z,91.27
2019-05-23T02:14:19.025Z,91.88
2019-05-23T02:15:18.976Z,91.88
2019-05-23T02:16:18.964Z,91.99
2019-05-23T02:17:18.906Z,91.67
2019-05-23T02:18:18.883Z,91.99
2019-05-23T02:20:18.885Z,92.19
2019-05-23T02:21:18.784Z,91.99
2019-05-23T02:22:18.755Z,92.50
2019-05-23T02:23:18.742Z,91.99
2019-05-23T02:24:18.716Z,92.64
2019-05-23T02:25:18.657Z,92.85
2019-05-23T02:26:18.626Z,92.44
2019-05-23T02:27:18.595Z,92.95
2019-05-23T02:28:19.325Z,92.95
2019-05-23T02:29:18.573Z,92.74
2019-05-23T02:30:32.977Z,93.10
2019-05-23T02:31:18.476Z,93.16
2019-05-23T02:32:18.442Z,93.40
2019-05-23T02:33:18.408Z,93.51
2019-05-23T02:34:18.401Z,93.76
2019-05-23T02:35:18.345Z,93.71
2019-05-23T02:36:18.322Z,94.48
2019-05-23T02:37:18.292Z,94.48
2019-05-23T02:38:18.257Z,94.68
2019-05-23T02:39:18.246Z,95.30
2019-05-23T02:40:18.204Z,95.09
2019-05-23T02:41:18.164Z,94.99
2019-05-23T02:42:18.135Z,95.50
2019-05-23T02:43:18.170Z,95.55
2019-05-23T02:44:18.101Z,95.30
2019-05-23T02:45:18.037Z,95.09
2019-05-23T02:46:18.014Z,95.75
2019-05-23T02:47:17.973Z,95.55
2019-05-23T02:48:17.956Z,95.65
2019-05-23T02:49:17.922Z,95.20
2019-05-23T02:50:17.917Z,95.45
2019-05-23T02:51:17.879Z,95.03
2019-05-23T02:52:17.816Z,95.55
2019-05-23T02:53:17.788Z,95.55
2019-05-23T02:54:17.759Z,95.86
2019-05-23T02:55:17.904Z,96.00
2019-05-23T02:56:17.699Z,96.37
2019-05-23T02:57:17.672Z,95.75
2019-05-23T02:58:17.642Z,96.31
2019-05-23T02:59:17.605Z,96.06
2019-05-23T03:00:17.589Z,96.37
2019-05-23T03:01:17.534Z,96.17
2019-05-23T03:02:17.508Z,95.96
2019-05-23T03:03:17.480Z,96.06
2019-05-23T03:04:17.443Z,96.21
2019-05-23T03:05:17.450Z,96.52
2019-05-23T03:06:17.390Z,96.93
2019-05-23T03:07:17.355Z,96.83
2019-05-23T03:08:17.316Z,96.62
2019-05-23T03:09:17.279Z,96.72
2019-05-23T03:10:17.295Z,96.83
2019-05-23T03:11:17.238Z,96.93
2019-05-23T03:12:17.202Z,96.83
2019-05-23T03:13:17.166Z,96.72
2019-05-23T03:14:17.131Z,96.52
2019-05-23T03:15:17.126Z,96.83
2019-05-23T03:16:17.062Z,96.42
2019-05-23T03:17:17.883Z,96.93
2019-05-23T03:18:17.005Z,97.14
2019-05-23T03:19:16.967Z,97.14
2019-05-23T03:20:16.969Z,97.55
2019-05-23T03:21:16.914Z,97.55
2019-05-23T03:22:16.878Z,97.14
2019-05-23T03:23:16.853Z,97.14
2019-05-23T03:24:16.810Z,97.55
2019-05-23T03:25:16.810Z,97.86
2019-05-23T03:26:16.828Z,97.75
2019-05-23T03:27:16.716Z,97.65
2019-05-23T03:28:16.699Z,97.65
2019-05-23T03:29:16.657Z,97.34
2019-05-23T03:30:16.632Z,97.60
2019-05-23T03:31:29.613Z,97.75
2019-05-23T03:32:16.557Z,97.86
2019-05-23T03:33:16.536Z,97.96
2019-05-23T03:34:16.497Z,97.24
2019-05-23T03:35:16.467Z,97.86
2019-05-23T03:36:16.920Z,98.21
2019-05-23T03:37:16.433Z,97.44
2019-05-23T03:38:16.367Z,98.21
2019-05-23T03:39:16.352Z,98.32
2019-05-23T03:40:16.309Z,97.80
2019-05-23T03:41:16.308Z,98.11
2019-05-23T03:42:16.248Z,98.11
2019-05-23T03:43:16.213Z,97.86
2019-05-23T03:44:16.183Z,98.06
2019-05-23T03:45:16.148Z,98.06
2019-05-23T03:46:16.801Z,98.06
2019-05-23T03:47:16.093Z,98.16
2019-05-23T03:48:16.061Z,97.96
2019-05-23T03:49:16.882Z,97.96
2019-05-23T03:50:16.021Z,98.06
2019-05-23T03:51:15.982Z,97.86
2019-05-23T03:52:15.945Z,98.00
2019-05-23T03:53:15.894Z,97.44
2019-05-23T03:54:15.872Z,97.39
2019-05-23T03:55:15.837Z,97.86
2019-05-23T03:56:15.830Z,97.14
2019-05-23T03:57:15.768Z,97.03
2019-05-23T03:58:15.746Z,96.72
2019-05-23T03:59:15.716Z,96.89
2019-05-23T04:00:15.681Z,96.21
2019-05-23T04:01:15.671Z,96.89
2019-05-23T04:02:16.310Z,96.78
2019-05-23T04:03:15.593Z,96.78
2019-05-23T04:04:15.551Z,96.17
2019-05-23T04:05:15.521Z,95.96
2019-05-23T04:06:15.509Z,96.33
2019-05-23T04:07:15.498Z,95.40
2019-05-23T04:08:15.427Z,95.25
2019-05-23T04:09:15.394Z,94.43
2019-05-23T04:10:15.365Z,94.33
2019-05-23T04:11:15.359Z,94.43
2019-05-23T04:12:15.321Z,94.18
2019-05-23T04:13:15.810Z,93.57
2019-05-23T04:14:15.253Z,93.26
2019-05-23T04:15:15.212Z,92.60
2019-05-23T04:16:15.182Z,92.60
2019-05-23T04:17:15.211Z,91.84
2019-05-23T04:18:15.125Z,91.53
2019-05-23T04:19:15.091Z,91.88
2019-05-23T04:20:15.054Z,91.88
2019-05-23T04:21:15.038Z,91.88
2019-05-23T04:22:15.012Z,91.88
2019-05-23T04:23:14.956Z,92.29
2019-05-23T04:24:14.931Z,92.40
2019-05-23T04:25:14.897Z,92.08
2019-05-23T04:26:14.922Z,93.05
2019-05-23T04:27:14.865Z,92.50
2019-05-23T04:28:14.809Z,92.64
2019-05-23T04:29:14.789Z,92.85
2019-05-23T04:30:14.742Z,92.70
2019-05-23T04:31:14.713Z,92.50
2019-05-23T04:32:14.739Z,92.23
2019-05-23T04:33:14.649Z,92.50
2019-05-23T04:34:14.617Z,92.08
2019-05-23T04:35:14.593Z,91.84
2019-05-23T04:36:14.553Z,91.06
2019-05-23T04:37:14.547Z,91.53
2019-05-23T04:38:14.495Z,91.63
2019-05-23T04:39:14.463Z,91.42
2019-05-23T04:40:14.432Z,91.33
2019-05-23T04:41:14.403Z,91.53
2019-05-23T04:42:14.396Z,91.12
2019-05-23T04:43:14.340Z,91.74
2019-05-23T04:44:14.409Z,91.22
2019-05-23T04:45:14.275Z,90.91
2019-05-23T04:46:14.247Z,90.71
2019-05-23T04:47:14.244Z,91.18
2019-05-23T04:48:14.188Z,90.56
2019-05-23T04:49:14.156Z,90.05
2019-05-23T04:50:14.129Z,90.67
2019-05-23T04:51:14.100Z,89.75
2019-05-23T04:52:14.105Z,90.26
2019-05-23T04:53:14.136Z,89.33
2019-05-23T04:54:13.999Z,89.19
2019-05-23T04:55:13.969Z,88.98
2019-05-23T04:56:13.945Z,88.88
2019-05-23T04:57:13.908Z,89.09
2019-05-23T04:58:13.923Z,88.57
2019-05-23T04:59:13.851Z,88.53
2019-05-23T05:00:14.422Z,88.12
2019-05-23T05:01:13.796Z,88.23
2019-05-23T05:02:25.411Z,88.12
2019-05-23T05:03:17.497Z,89.04
2019-05-23T05:04:13.701Z,88.43
2019-05-23T05:05:13.682Z,87.71
2019-05-23T05:06:13.637Z,87.57
2019-05-23T05:07:13.614Z,87.57
2019-05-23T05:08:13.606Z,87.26
2019-05-23T05:09:13.543Z,86.85
2019-05-23T05:10:13.517Z,86.96
2019-05-23T05:11:13.488Z,86.96
2019-05-23T05:12:13.462Z,86.75
2019-05-23T05:13:13.447Z,87.06
2019-05-23T05:14:13.415Z,86.65
2019-05-23T05:15:13.365Z,86.91
2019-05-23T05:16:13.334Z,87.02
2019-05-23T05:17:13.302Z,86.61
2019-05-23T05:18:13.305Z,86.71
2019-05-23T05:19:13.247Z,86.71
2019-05-23T05:20:13.214Z,86.71
2019-05-23T05:21:13.944Z,86.16
2019-05-23T05:22:13.154Z,84.69
2019-05-23T05:23:13.150Z,83.14
2019-05-23T05:24:13.101Z,80.85
2019-05-23T05:25:13.067Z,78.74
2019-05-23T05:26:13.048Z,77.37
2019-05-23T05:27:13.012Z,78.37
2019-05-23T05:28:13.015Z,79.18
2019-05-23T05:29:12.948Z,81.10
2019-05-23T05:30:12.913Z,81.95
2019-05-23T05:31:12.886Z,82.81
2019-05-23T05:32:12.859Z,83.36
2019-05-23T05:33:12.858Z,84.28
2019-05-23T05:34:12.803Z,84.07
2019-05-23T05:35:12.777Z,84.58
2019-05-23T05:36:12.738Z,84.28
2019-05-23T05:37:12.709Z,84.38
2019-05-23T05:38:12.937Z,84.69
2019-05-23T05:39:12.648Z,84.58
2019-05-23T05:40:12.621Z,84.07
2019-05-23T05:41:12.593Z,84.48
2019-05-23T05:42:12.559Z,84.69
2019-05-23T05:43:12.550Z,84.58
2019-05-23T05:44:12.501Z,84.48
2019-05-23T05:45:12.477Z,83.76
2019-05-23T05:46:12.443Z,83.42
2019-05-23T05:47:12.413Z,83.32
2019-05-23T05:48:12.415Z,83.32
2019-05-23T05:49:12.358Z,84.03
2019-05-23T05:50:12.324Z,82.50
2019-05-23T05:51:12.297Z,82.60
2019-05-23T05:52:12.263Z,82.70
2019-05-23T05:53:12.254Z,82.46
2019-05-23T05:54:12.218Z,82.67
2019-05-23T05:55:12.173Z,81.54
2019-05-23T05:56:12.161Z,81.60
2019-05-23T05:57:12.118Z,80.62
2019-05-23T05:58:12.115Z,81.30
2019-05-23T05:59:12.059Z,80.99
2019-05-23T06:00:13.127Z,80.79
2019-05-23T06:01:12.011Z,81.40
2019-05-23T06:02:11.971Z,80.14
2019-05-23T06:03:11.960Z,80.44
2019-05-23T06:04:11.936Z,80.14
2019-05-23T06:05:11.879Z,79.02
2019-05-23T06:06:11.861Z,78.67
2019-05-23T06:07:11.821Z,78.94
2019-05-23T06:08:11.793Z,78.47
2019-05-23T06:09:11.807Z,78.33
2019-05-23T06:10:11.739Z,77.58
2019-05-23T06:11:11.710Z,78.19
2019-05-23T06:12:11.700Z,77.37
2019-05-23T06:13:11.647Z,77.78
2019-05-23T06:14:11.643Z,77.37
2019-05-23T06:15:11.590Z,76.73
2019-05-23T06:16:11.563Z,76.69
2019-05-23T06:17:11.532Z,75.74
2019-05-23T06:18:11.502Z,74.96
2019-05-23T06:19:11.505Z,75.81
2019-05-23T06:20:11.568Z,75.71
2019-05-23T06:21:11.473Z,75.67
2019-05-23T06:22:11.427Z,74.86
2019-05-23T06:23:11.365Z,75.27
2019-05-23T06:24:11.368Z,75.06
2019-05-23T06:25:11.926Z,75.64
2019-05-23T06:26:11.283Z,73.36
2019-05-23T06:27:11.251Z,74.08
2019-05-23T06:28:11.239Z,74.11
2019-05-23T06:29:11.223Z,74.41
2019-05-23T06:30:11.299Z,74.01
2019-05-23T06:31:11.143Z,74.21
2019-05-23T06:32:11.116Z,73.60
2019-05-23T06:33:22.700Z,73.67
2019-05-23T06:34:11.081Z,73.60
2019-05-23T06:35:11.133Z,73.97
2019-05-23T06:36:11.006Z,73.30
2019-05-23T06:37:10.976Z,72.99
2019-05-23T06:38:10.947Z,73.40
2019-05-23T06:39:10.943Z,74.11
2019-05-23T06:40:10.935Z,73.71
2019-05-23T06:41:10.870Z,73.91
2019-05-23T06:42:10.837Z,73.60
2019-05-23T06:43:11.841Z,72.89
2019-05-23T06:44:11.440Z,74.52
2019-05-23T06:45:10.756Z,74.38
2019-05-23T06:46:10.748Z,74.15
2019-05-23T06:47:10.707Z,73.63
2019-05-23T06:48:10.673Z,72.41
2019-05-23T06:49:10.667Z,72.62
2019-05-23T06:50:10.621Z,71.91
2019-05-23T06:51:10.591Z,72.52
2019-05-23T06:52:10.571Z,72.52
2019-05-23T06:53:10.557Z,72.38
2019-05-23T06:54:10.533Z,71.64
2019-05-23T06:55:10.491Z,70.72
2019-05-23T06:56:10.453Z,70.86
2019-05-23T06:57:10.427Z,69.06
2019-05-23T06:58:10.402Z,69.47
2019-05-23T06:59:10.944Z,69.87
2019-05-23T07:00:10.348Z,69.47
2019-05-23T07:01:10.329Z,70.38
2019-05-23T07:02:10.295Z,69.26
2019-05-23T07:03:10.272Z,69.74
2019-05-23T07:04:10.273Z,69.70
2019-05-23T07:05:10.217Z,69.94
2019-05-23T07:06:10.250Z,71.06
2019-05-23T07:07:10.167Z,70.86
2019-05-23T07:08:10.139Z,71.06
2019-05-23T07:09:10.110Z,71.06
2019-05-23T07:10:10.109Z,71.06
2019-05-23T07:11:10.058Z,70.31
2019-05-23T07:12:10.030Z,69.20
2019-05-23T07:13:10.009Z,69.40
2019-05-23T07:14:09.988Z,70.18
2019-05-23T07:15:09.988Z,70.65
2019-05-23T07:16:09.925Z,69.34
2019-05-23T07:17:09.897Z,68.59
2019-05-23T07:18:09.875Z,68.49
2019-05-23T07:19:09.849Z,70.04
2019-05-23T07:20:09.843Z,68.32
2019-05-23T07:21:09.789Z,68.66
2019-05-23T07:22:09.762Z,68.73
2019-05-23T07:23:09.740Z,68.52
2019-05-23T07:24:09.714Z,68.05
2019-05-23T07:25:09.711Z,68.86
2019-05-23T07:26:09.658Z,69.87
2019-05-23T07:27:09.633Z,70.42
2019-05-23T07:28:09.615Z,69.47
2019-05-23T07:29:09.591Z,68.96
2019-05-23T07:30:09.587Z,68.52
2019-05-23T07:31:09.530Z,69.03
2019-05-23T07:32:09.504Z,69.23
2019-05-23T07:33:09.552Z,68.01
2019-05-23T07:34:09.448Z,68.42
2019-05-23T07:35:09.445Z,68.19
2019-05-23T07:36:09.399Z,68.39
2019-05-23T07:37:09.367Z,68.01
2019-05-23T07:38:09.362Z,67.03
2019-05-23T07:39:11.535Z,67.00
2019-05-23T07:40:09.311Z,66.80
2019-05-23T07:41:09.265Z,66.46
2019-05-23T07:42:09.239Z,65.92
2019-05-23T07:43:09.227Z,66.94
2019-05-23T07:44:09.202Z,66.02
2019-05-23T07:45:09.179Z,66.02
2019-05-23T07:46:09.141Z,65.42
2019-05-23T07:47:09.114Z,63.62
2019-05-23T07:48:09.077Z,64.33
2019-05-23T07:49:09.055Z,66.29
2019-05-23T07:50:09.050Z,66.19
2019-05-23T07:51:09.010Z,65.81
2019-05-23T07:52:08.975Z,65.68
2019-05-23T07:53:08.977Z,66.08
2019-05-23T07:54:08.924Z,65.88
2019-05-23T07:55:08.900Z,66.19
2019-05-23T07:56:08.895Z,64.87
2019-05-23T07:57:08.838Z,65.10
2019-05-23T07:58:08.833Z,65.71
2019-05-23T07:59:08.789Z,65.61
2019-05-23T08:00:08.761Z,65.51
2019-05-23T08:01:08.765Z,65.61
2019-05-23T08:02:08.711Z,65.64
2019-05-23T08:03:08.685Z,66.25
2019-05-23T08:04:20.361Z,66.12
2019-05-23T08:05:08.653Z,66.83
2019-05-23T08:06:08.627Z,66.80
2019-05-23T08:07:08.571Z,67.10
2019-05-23T08:08:08.624Z,66.80
2019-05-23T08:09:08.518Z,66.80
2019-05-23T08:10:08.491Z,65.78
2019-05-23T08:11:08.496Z,66.49
2019-05-23T08:12:08.442Z,65.88
2019-05-23T08:13:08.413Z,65.41
2019-05-23T08:14:11.899Z,66.22
2019-05-23T08:15:08.377Z,64.79
2019-05-23T08:16:08.369Z,63.68
2019-05-23T08:17:08.366Z,63.78
2019-05-23T08:18:08.275Z,63.98
2019-05-23T08:19:08.255Z,63.28
2019-05-23T08:20:08.219Z,64.79
2019-05-23T08:21:08.220Z,64.36
2019-05-23T08:22:08.167Z,64.06
2019-05-23T08:23:08.138Z,64.73
2019-05-23T08:24:08.123Z,65.62
2019-05-23T08:25:08.083Z,64.84
2019-05-23T08:26:08.085Z,63.39
2019-05-23T08:27:08.934Z,63.52
2019-05-23T08:28:08.007Z,61.79
2019-05-23T08:29:25.950Z,62.71
2019-05-23T08:30:07.959Z,64.64
2019-05-23T08:31:07.955Z,62.91
2019-05-23T08:32:07.898Z,61.99
2019-05-23T08:33:07.907Z,62.71
2019-05-23T08:34:07.851Z,63.32
2019-05-23T08:35:07.820Z,62.98
2019-05-23T08:36:07.813Z,62.27
2019-05-23T08:37:07.849Z,62.88
2019-05-23T08:38:07.733Z,61.87
2019-05-23T08:39:07.710Z,62.17
2019-05-23T08:40:07.690Z,61.87
2019-05-23T08:41:07.692Z,60.35
2019-05-23T08:42:07.635Z,60.65
2019-05-23T08:43:07.609Z,60.82
2019-05-23T08:44:11.276Z,59.91
2019-05-23T08:45:07.547Z,60.11
2019-05-23T08:46:07.550Z,59.38
2019-05-23T08:47:07.531Z,58.97
2019-05-23T08:48:07.467Z,59.34
2019-05-23T08:49:07.444Z,59.34
2019-05-23T08:50:07.423Z,59.05
2019-05-23T08:51:07.391Z,59.12
2019-05-23T08:52:07.394Z,57.90
2019-05-23T08:53:07.378Z,58.20
2019-05-23T08:54:07.312Z,56.18
2019-05-23T08:55:07.283Z,57.40
2019-05-23T08:56:18.490Z,57.50
2019-05-23T08:57:07.254Z,57.22
2019-05-23T08:58:07.209Z,55.80
2019-05-23T08:59:07.178Z,56.82
2019-05-23T09:00:07.154Z,58.23
2019-05-23T09:01:07.125Z,58.84
2019-05-23T09:02:07.123Z,59.34
2019-05-23T09:03:07.074Z,60.26
2019-05-23T09:04:07.050Z,58.44
2019-05-23T09:05:07.046Z,58.61
2019-05-23T09:06:06.998Z,58.71
2019-05-23T09:07:07.001Z,56.59
2019-05-23T09:08:06.954Z,55.44
2019-05-23T09:09:27.487Z,54.03
2019-05-23T09:10:06.915Z,54.03
2019-05-23T09:11:06.871Z,55.73
2019-05-23T09:12:06.869Z,53.70
2019-05-23T09:13:06.815Z,54.00
2019-05-23T09:14:06.793Z,54.31
2019-05-23T09:15:09.769Z,55.15
2019-05-23T09:16:06.755Z,55.35
2019-05-23T09:17:06.740Z,55.02
2019-05-23T09:18:06.706Z,55.62
2019-05-23T09:19:06.672Z,54.51
2019-05-23T09:20:06.644Z,55.62
2019-05-23T09:21:06.616Z,55.90
2019-05-23T09:22:06.638Z,53.34
2019-05-23T09:23:06.556Z,52.94
2019-05-23T09:24:06.535Z,53.55
2019-05-23T09:25:06.513Z,51.93
2019-05-23T09:26:06.492Z,52.72
2019-05-23T09:27:06.489Z,51.91
2019-05-23T09:28:06.445Z,51.53
2019-05-23T09:29:06.406Z,50.32
2019-05-23T09:30:06.383Z,50.80
2019-05-23T09:31:06.371Z,50.01
2019-05-23T09:32:06.382Z,50.62
2019-05-23T09:33:06.307Z,50.42
2019-05-23T09:34:06.283Z,50.52
2019-05-23T09:35:19.628Z,50.21
2019-05-23T09:36:06.232Z,49.81
2019-05-23T09:37:06.231Z,49.30
2019-05-23T09:38:06.212Z,50.34
2019-05-23T09:39:06.167Z,51.55
2019-05-23T09:40:06.129Z,51.73
2019-05-23T09:41:06.105Z,51.50
2019-05-23T09:42:06.109Z,50.57
2019-05-23T09:43:06.067Z,50.67
2019-05-23T09:44:06.031Z,49.54
2019-05-23T09:45:06.018Z,47.34
2019-05-23T09:46:05.986Z,47.06
2019-05-23T09:47:05.978Z,47.34
2019-05-23T09:48:05.939Z,47.85
2019-05-23T09:49:05.908Z,48.35
2019-05-23T09:50:05.885Z,48.45
2019-05-23T09:51:05.885Z,48.47
2019-05-23T09:52:05.915Z,49.38
2019-05-23T09:53:05.838Z,49.91
2019-05-23T09:54:05.801Z,50.78
2019-05-23T09:55:06.015Z,49.38
2019-05-23T09:56:05.761Z,50.07
2019-05-23T09:57:05.729Z,49.76
2019-05-23T09:58:05.717Z,50.04
2019-05-23T09:59:05.673Z,49.13
2019-05-23T10:00:05.657Z,49.04
2019-05-23T10:01:05.625Z,48.63
2019-05-23T10:02:05.641Z,50.55
2019-05-23T10:03:05.595Z,50.15
2019-05-23T10:04:05.551Z,51.66
2019-05-23T10:05:05.531Z,50.12
2019-05-23T10:06:05.490Z,50.42
2019-05-23T10:07:05.483Z,49.79
2019-05-23T10:08:05.466Z,50.20
2019-05-23T10:09:05.429Z,49.11
2019-05-23T10:10:05.443Z,49.72
2019-05-23T10:11:05.372Z,49.29
2019-05-23T10:12:05.346Z,46.99
2019-05-23T10:13:05.361Z,46.99
2019-05-23T10:14:05.300Z,46.79
2019-05-23T10:15:05.274Z,46.79
2019-05-23T10:16:05.386Z,45.36
2019-05-23T10:17:05.238Z,46.26
2019-05-23T10:18:05.226Z,45.07
2019-05-23T10:19:05.180Z,45.07
2019-05-23T10:20:05.153Z,44.78
2019-05-23T10:21:05.135Z,45.97
2019-05-23T10:22:05.106Z,44.85
2019-05-23T10:23:05.111Z,44.53
2019-05-23T10:24:05.107Z,44.53
2019-05-23T10:25:05.033Z,45.66
2019-05-23T10:26:05.014Z,46.14
2019-05-23T10:27:05.028Z,46.02
2019-05-23T10:28:04.990Z,44.81
2019-05-23T10:29:04.940Z,44.33
2019-05-23T10:30:04.919Z,44.73
2019-05-23T10:31:04.891Z,44.33
2019-05-23T10:32:04.880Z,45.03
2019-05-23T10:33:11.731Z,44.13
2019-05-23T10:34:05.479Z,44.92
2019-05-23T10:35:04.796Z,44.63
2019-05-23T10:36:04.783Z,44.92
2019-05-23T10:37:04.757Z,44.41
2019-05-23T10:38:04.762Z,44.71
2019-05-23T10:39:04.701Z,43.40
2019-05-23T10:40:04.687Z,44.21
2019-05-23T10:41:04.659Z,43.40
2019-05-23T10:42:04.639Z,44.43
2019-05-23T10:43:04.636Z,44.33
2019-05-23T10:44:10.402Z,45.24
2019-05-23T10:45:04.601Z,43.40
2019-05-23T10:46:04.549Z,44.31
2019-05-23T10:47:04.555Z,44.71
2019-05-23T10:48:04.535Z,44.71
2019-05-23T10:49:04.466Z,45.24
2019-05-23T10:50:08.191Z,44.85
2019-05-23T10:51:04.426Z,45.36
2019-05-23T10:52:04.399Z,45.56
2019-05-23T10:53:04.429Z,44.73
2019-05-23T10:54:04.388Z,44.43
2019-05-23T10:55:04.337Z,44.83
2019-05-23T10:56:04.315Z,44.73
2019-05-23T10:57:04.364Z,45.03
2019-05-23T10:58:04.286Z,45.74
2019-05-23T10:59:04.242Z,45.74
2019-05-23T11:00:04.227Z,44.71
2019-05-23T11:01:04.202Z,45.39
2019-05-23T11:02:04.166Z,45.59
2019-05-23T11:03:04.176Z,45.50
2019-05-23T11:04:04.126Z,44.51
2019-05-23T11:05:13.098Z,45.32
2019-05-23T11:06:15.704Z,46.33
2019-05-23T11:07:04.056Z,45.54
2019-05-23T11:08:04.027Z,45.34
2019-05-23T11:09:04.041Z,47.53
2019-05-23T11:10:03.999Z,46.28
2019-05-23T11:11:03.961Z,45.37
2019-05-23T11:12:03.942Z,46.10
2019-05-23T11:13:03.910Z,46.10
2019-05-23T11:14:08.191Z,46.73
2019-05-23T11:15:12.510Z,46.83
2019-05-23T11:16:03.874Z,46.75
2019-05-23T11:17:03.828Z,46.67
2019-05-23T11:18:03.799Z,47.17
2019-05-23T11:19:03.800Z,47.47
2019-05-23T11:20:03.748Z,47.47
2019-05-23T11:21:03.754Z,48.66
2019-05-23T11:22:03.703Z,47.27
2019-05-23T11:23:03.899Z,48.38
2019-05-23T11:24:03.691Z,50.27
2019-05-23T11:25:03.642Z,47.25
2019-05-23T11:26:03.615Z,47.86
2019-05-23T11:27:03.659Z,46.67
2019-05-23T11:28:03.566Z,47.19
2019-05-23T11:29:03.574Z,47.67
2019-05-23T11:30:03.519Z,48.16
2019-05-23T11:31:03.497Z,48.64
2019-05-23T11:32:03.485Z,48.34
2019-05-23T11:33:03.462Z,47.13
2019-05-23T11:34:03.445Z,46.62
2019-05-23T11:35:03.486Z,47.41
2019-05-23T11:36:03.379Z,46.91
2019-05-23T11:37:03.356Z,47.13
2019-05-23T11:38:03.517Z,46.53
2019-05-23T11:39:03.335Z,46.93
2019-05-23T11:40:03.291Z,46.65
2019-05-23T11:41:03.263Z,47.75
2019-05-23T11:42:03.242Z,47.45
2019-05-23T11:43:03.215Z,47.47
2019-05-23T11:44:03.232Z,47.17
2019-05-23T11:45:03.211Z,48.91
2019-05-23T11:46:03.233Z,48.99
2019-05-23T11:47:03.129Z,47.47
2019-05-23T11:48:03.110Z,47.47
2019-05-23T11:49:03.148Z,48.18
2019-05-23T11:50:03.056Z,48.69
2019-05-23T11:51:03.029Z,49.69
2019-05-23T11:52:03.014Z,49.21
2019-05-23T11:53:02.993Z,48.81
2019-05-23T11:54:08.922Z,49.11
2019-05-23T11:55:02.945Z,50.30
2019-05-23T11:56:02.924Z,49.72
2019-05-23T11:57:02.903Z,49.21
2019-05-23T11:58:02.884Z,49.62
2019-05-23T11:59:02.861Z,50.30
2019-05-23T12:00:02.843Z,50.70
2019-05-23T12:01:02.877Z,48.79
2019-05-23T12:02:02.767Z,48.46
2019-05-23T12:03:02.744Z,49.29
2019-05-23T12:04:02.745Z,49.29
2019-05-23T12:05:02.716Z,50.10
2019-05-23T12:06:05.483Z,49.01
2019-05-23T12:07:02.649Z,49.41
2019-05-23T12:08:02.622Z,49.72
2019-05-23T12:09:02.599Z,49.92
2019-05-23T12:10:02.604Z,49.31
2019-05-23T12:11:02.556Z,49.82
2019-05-23T12:12:02.528Z,50.32
2019-05-23T12:13:02.505Z,51.33
2019-05-23T12:14:02.476Z,51.64
2019-05-23T12:15:02.478Z,49.41
2019-05-23T12:16:02.443Z,49.82
2019-05-23T12:17:02.409Z,50.42
2019-05-23T12:18:02.388Z,50.73
2019-05-23T12:19:02.360Z,49.31
2019-05-23T12:20:02.846Z,50.35
2019-05-23T12:21:02.303Z,49.84
2019-05-23T12:22:02.278Z,50.45
2019-05-23T12:23:07.486Z,49.94
2019-05-23T12:24:02.242Z,50.65
2019-05-23T12:25:20.154Z,50.15
2019-05-23T12:26:02.179Z,51.25
2019-05-23T12:27:02.191Z,51.13
2019-05-23T12:28:02.134Z,50.32
2019-05-23T12:29:02.125Z,50.02
2019-05-23T12:30:02.121Z,50.32
2019-05-23T12:31:02.089Z,50.45
2019-05-23T12:32:02.041Z,50.24
2019-05-23T12:33:02.005Z,50.65
2019-05-23T12:34:01.989Z,51.33
2019-05-23T12:35:10.366Z,51.43
2019-05-23T12:36:01.921Z,50.50
2019-05-23T12:37:18.304Z,49.99
2019-05-23T12:38:02.764Z,50.60
2019-05-23T12:39:01.958Z,49.37
2019-05-23T12:40:01.989Z,48.76
2019-05-23T12:41:01.809Z,49.35
2019-05-23T12:42:01.780Z,49.55
2019-05-23T12:43:01.763Z,48.03
2019-05-23T12:44:01.744Z,48.24
2019-05-23T12:45:02.537Z,50.05
2019-05-23T12:46:01.739Z,50.35
2019-05-23T12:47:01.695Z,48.64
2019-05-23T12:48:01.630Z,48.84
2019-05-23T12:49:01.693Z,48.24
2019-05-23T12:50:01.580Z,50.17
2019-05-23T12:51:02.325Z,48.64
2019-05-23T12:52:01.537Z,48.64
2019-05-23T12:53:01.498Z,48.14